Overview Statistics Trail Chart Weather Telemetry Raw packets
 

This is the latest recevied weather packets stored in our database for station/object JH7UAX-10. If no packets are shown the sender has not sent any weather packets the latest 10 day(s).

<< 28 29 30 31 32 33 34 >>
Time Temp. Humidity Pressure Rain* Wind** Luminosity Snow
1787812158 26.11° C 85% 1017.1 hPa 0 mm - - -
1787811255 26.67° C 82% 1017.3 hPa 0 mm - - -
1787810354 26.67° C 80% 1017.4 hPa 0 mm - - -
1787809455 27.22° C 79% 1017.4 hPa 0 mm - - -
1787808555 27.22° C 77% 1017.4 hPa 0 mm - - -
1787807655 27.22° C 78% 1017.5 hPa 0 mm - - -
1787806756 27.78° C 76% 1017.7 hPa 0 mm - - -
1787805889 27.22° C 76% 1017.6 hPa 0 mm - - -
1787805855 27.22° C 76% 1017.6 hPa 0 mm - - -
1787804955 27.22° C 77% 1017.8 hPa 0 mm - - -
1787804055 26.67° C 77% 1018 hPa 0 mm - - -
1787803156 26.67° C 77% 1018.4 hPa 0 mm - - -
1787802255 26.67° C 75% 1018.4 hPa 0 mm - - -
1787801355 27.22° C 74% 1018.5 hPa 0 mm - - -
1787800454 27.22° C 75% 1018.4 hPa 0 mm - - -
1787799554 26.67° C 77% 1018.6 hPa 0 mm - - -
1787797755 27.22° C 75% 1018.7 hPa 0 mm - - -
1787796854 27.22° C 76% 1018.8 hPa 0 mm - - -
1787795959 27.22° C 76% 1019.1 hPa 0 mm - - -
1787795055 27.22° C 76% 1019.3 hPa 0 mm - - -
1787794156 26.67° C 79% 1019.5 hPa 0 mm - - -
1787793255 26.11° C 79% 1019.4 hPa 0 mm - - -
1787792355 26.11° C 79% 1019.4 hPa 0 mm - - -
1787791455 25.56° C 82% 1019.8 hPa 0 mm - - -
1787790572 25° C 84% 1019.7 hPa 0 mm - - -

* Rain latest hour (hover to see other rain measurements)
** Current wind speed in m/s (hover to see current wind gust speed)